sensor_id;sensor_type;location;lat;lon;timestamp;P1;durP1;ratioP1;P2;durP2;ratioP2
36593;SDS011;22603;47.900;8.146;2023-11-18T08:36:20;6.03;;;2.60;;
36593;SDS011;22603;47.900;8.146;2023-11-18T08:39:07;5.27;;;2.13;;
36593;SDS011;22603;47.900;8.146;2023-11-18T08:41:56;7.30;;;2.50;;
36593;SDS011;22603;47.900;8.146;2023-11-18T08:44:43;6.63;;;2.53;;
36593;SDS011;22603;47.900;8.146;2023-11-18T08:47:33;6.13;;;2.53;;
36593;SDS011;22603;47.900;8.146;2023-11-18T08:50:20;6.20;;;2.40;;
36593;SDS011;22603;47.900;8.146;2023-11-18T08:53:11;5.47;;;2.00;;
36593;SDS011;22603;47.900;8.146;2023-11-18T08:55:57;7.43;;;2.43;;
36593;SDS011;22603;47.900;8.146;2023-11-18T08:58:44;4.47;;;2.00;;
36593;SDS011;22603;47.900;8.146;2023-11-18T09:01:33;8.97;;;2.77;;
36593;SDS011;22603;47.900;8.146;2023-11-18T09:04:20;9.47;;;3.03;;
36593;SDS011;22603;47.900;8.146;2023-11-18T09:07:07;9.17;;;3.23;;
36593;SDS011;22603;47.900;8.146;2023-11-18T09:09:56;9.07;;;3.33;;
36593;SDS011;22603;47.900;8.146;2023-11-18T09:12:43;6.33;;;2.53;;
36593;SDS011;22603;47.900;8.146;2023-11-18T09:15:30;6.73;;;2.70;;
36593;SDS011;22603;47.900;8.146;2023-11-18T09:18:16;7.17;;;3.13;;
36593;SDS011;22603;47.900;8.146;2023-11-18T09:21:06;5.93;;;2.57;;
36593;SDS011;22603;47.900;8.146;2023-11-18T09:23:59;7.33;;;2.67;;
36593;SDS011;22603;47.900;8.146;2023-11-18T09:26:51;6.80;;;2.70;;
36593;SDS011;22603;47.900;8.146;2023-11-18T09:29:41;9.50;;;2.93;;
36593;SDS011;22603;47.900;8.146;2023-11-18T09:32:34;5.90;;;2.57;;
36593;SDS011;22603;47.900;8.146;2023-11-18T09:35:24;6.07;;;2.27;;
36593;SDS011;22603;47.900;8.146;2023-11-18T09:38:13;8.93;;;2.50;;
36593;SDS011;22603;47.900;8.146;2023-11-18T09:41:00;6.97;;;2.40;;
36593;SDS011;22603;47.900;8.146;2023-11-18T09:43:50;5.37;;;2.13;;
36593;SDS011;22603;47.900;8.146;2023-11-18T09:46:40;6.47;;;2.40;;
36593;SDS011;22603;47.900;8.146;2023-11-18T09:49:44;7.50;;;2.70;;
36593;SDS011;22603;47.900;8.146;2023-11-18T09:52:31;5.63;;;2.03;;
36593;SDS011;22603;47.900;8.146;2023-11-18T09:55:25;7.63;;;2.47;;
36593;SDS011;22603;47.900;8.146;2023-11-18T09:58:17;6.70;;;2.43;;
36593;SDS011;22603;47.900;8.146;2023-11-18T10:01:10;3.90;;;1.63;;
36593;SDS011;22603;47.900;8.146;2023-11-18T10:11:16;6.73;;;2.50;;
36593;SDS011;22603;47.900;8.146;2023-11-18T10:18:41;6.40;;;2.53;;
36593;SDS011;22603;47.900;8.146;2023-11-18T10:21:34;8.47;;;3.00;;
36593;SDS011;22603;47.900;8.146;2023-11-18T10:24:25;6.73;;;2.57;;
36593;SDS011;22603;47.900;8.146;2023-11-18T10:27:12;6.00;;;2.33;;
36593;SDS011;22603;47.900;8.146;2023-11-18T10:30:01;7.60;;;2.90;;
36593;SDS011;22603;47.900;8.146;2023-11-18T10:32:56;6.00;;;2.60;;
36593;SDS011;22603;47.900;8.146;2023-11-18T10:35:52;6.57;;;2.40;;
36593;SDS011;22603;47.900;8.146;2023-11-18T10:38:40;8.10;;;2.37;;
36593;SDS011;22603;47.900;8.146;2023-11-18T10:41:31;6.63;;;2.97;;
36593;SDS011;22603;47.900;8.146;2023-11-18T10:44:21;9.00;;;3.43;;
36593;SDS011;22603;47.900;8.146;2023-11-18T10:47:10;7.33;;;2.83;;
36593;SDS011;22603;47.900;8.146;2023-11-18T10:49:59;7.33;;;2.73;;
36593;SDS011;22603;47.900;8.146;2023-11-18T10:52:47;7.53;;;2.50;;
36593;SDS011;22603;47.900;8.146;2023-11-18T10:55:35;6.40;;;2.67;;
36593;SDS011;22603;47.900;8.146;2023-11-18T10:58:23;6.23;;;2.43;;
36593;SDS011;22603;47.900;8.146;2023-11-18T11:01:10;6.67;;;2.73;;
36593;SDS011;22603;47.900;8.146;2023-11-18T11:03:57;5.43;;;2.10;;
36593;SDS011;22603;47.900;8.146;2023-11-18T11:06:48;3.63;;;1.57;;
36593;SDS011;22603;47.900;8.146;2023-11-18T11:09:42;3.90;;;1.70;;
36593;SDS011;22603;47.900;8.146;2023-11-18T11:12:33;4.30;;;2.03;;
36593;SDS011;22603;47.900;8.146;2023-11-18T11:15:28;4.47;;;2.03;;
36593;SDS011;22603;47.900;8.146;2023-11-18T11:18:32;6.63;;;2.00;;
36593;SDS011;22603;47.900;8.146;2023-11-18T11:21:25;5.03;;;1.70;;
36593;SDS011;22603;47.900;8.146;2023-11-18T11:24:17;3.60;;;1.73;;
36593;SDS011;22603;47.900;8.146;2023-11-18T11:27:21;5.33;;;2.13;;
36593;SDS011;22603;47.900;8.146;2023-11-18T11:30:22;3.97;;;1.60;;
36593;SDS011;22603;47.900;8.146;2023-11-18T11:33:13;2.63;;;1.53;;
36593;SDS011;22603;47.900;8.146;2023-11-18T11:36:04;4.77;;;1.80;;
36593;SDS011;22603;47.900;8.146;2023-11-18T11:38:57;4.10;;;1.60;;
36593;SDS011;22603;47.900;8.146;2023-11-18T11:41:46;4.43;;;1.60;;
36593;SDS011;22603;47.900;8.146;2023-11-18T11:44:38;2.80;;;1.60;;
36593;SDS011;22603;47.900;8.146;2023-11-18T11:47:27;4.50;;;1.67;;
36593;SDS011;22603;47.900;8.146;2023-11-18T11:50:24;6.93;;;1.90;;
36593;SDS011;22603;47.900;8.146;2023-11-18T11:53:20;3.73;;;1.60;;
36593;SDS011;22603;47.900;8.146;2023-11-18T11:56:11;3.60;;;1.50;;
36593;SDS011;22603;47.900;8.146;2023-11-18T11:59:06;3.17;;;1.40;;
36593;SDS011;22603;47.900;8.146;2023-11-18T12:01:57;6.17;;;1.80;;
36593;SDS011;22603;47.900;8.146;2023-11-18T12:04:46;5.93;;;1.40;;
36593;SDS011;22603;47.900;8.146;2023-11-18T12:07:37;5.27;;;1.50;;
36593;SDS011;22603;47.900;8.146;2023-11-18T12:21:04;2.93;;;1.40;;
36593;SDS011;22603;47.900;8.146;2023-11-18T12:24:17;3.33;;;1.47;;
36593;SDS011;22603;47.900;8.146;2023-11-18T12:27:07;5.50;;;1.20;;
36593;SDS011;22603;47.900;8.146;2023-11-18T12:29:57;4.70;;;1.67;;
36593;SDS011;22603;47.900;8.146;2023-11-18T12:33:03;2.67;;;1.20;;
36593;SDS011;22603;47.900;8.146;2023-11-18T12:43:05;2.87;;;0.97;;
36593;SDS011;22603;47.900;8.146;2023-11-18T12:49:20;0.93;;;0.63;;
36593;SDS011;22603;47.900;8.146;2023-11-18T12:52:11;3.40;;;1.20;;
36593;SDS011;22603;47.900;8.146;2023-11-18T12:54:59;2.20;;;1.00;;
36593;SDS011;22603;47.900;8.146;2023-11-18T12:57:47;2.60;;;0.73;;
36593;SDS011;22603;47.900;8.146;2023-11-18T13:00:36;1.30;;;0.90;;
36593;SDS011;22603;47.900;8.146;2023-11-18T13:03:26;1.53;;;1.00;;
36593;SDS011;22603;47.900;8.146;2023-11-18T13:06:13;2.63;;;0.90;;
36593;SDS011;22603;47.900;8.146;2023-11-18T13:09:02;1.20;;;0.70;;
36593;SDS011;22603;47.900;8.146;2023-11-18T13:11:55;3.00;;;1.00;;
36593;SDS011;22603;47.900;8.146;2023-11-18T13:14:48;2.43;;;0.80;;
36593;SDS011;22603;47.900;8.146;2023-11-18T13:17:36;1.80;;;0.80;;
36593;SDS011;22603;47.900;8.146;2023-11-18T13:20:26;7.43;;;1.20;;
36593;SDS011;22603;47.900;8.146;2023-11-18T13:23:16;3.90;;;1.53;;
36593;SDS011;22603;47.900;8.146;2023-11-18T13:26:05;1.93;;;1.10;;
36593;SDS011;22603;47.900;8.146;2023-11-18T13:28:54;3.90;;;1.40;;
36593;SDS011;22603;47.900;8.146;2023-11-18T13:31:41;3.50;;;0.90;;
36593;SDS011;22603;47.900;8.146;2023-11-18T13:34:29;1.43;;;0.70;;
36593;SDS011;22603;47.900;8.146;2023-11-18T13:37:19;3.40;;;1.17;;
36593;SDS011;22603;47.900;8.146;2023-11-18T13:40:08;1.43;;;0.80;;
36593;SDS011;22603;47.900;8.146;2023-11-18T13:43:05;2.27;;;1.03;;
36593;SDS011;22603;47.900;8.146;2023-11-18T13:45:54;3.70;;;1.20;;
36593;SDS011;22603;47.900;8.146;2023-11-18T13:48:46;1.10;;;1.00;;
36593;SDS011;22603;47.900;8.146;2023-11-18T13:51:34;1.13;;;0.90;;
36593;SDS011;22603;47.900;8.146;2023-11-18T13:54:21;1.97;;;1.00;;
36593;SDS011;22603;47.900;8.146;2023-11-18T13:57:13;7.67;;;1.50;;
36593;SDS011;22603;47.900;8.146;2023-11-18T14:00:02;4.33;;;1.50;;
36593;SDS011;22603;47.900;8.146;2023-11-18T14:02:52;2.17;;;1.03;;
36593;SDS011;22603;47.900;8.146;2023-11-18T14:05:41;4.20;;;1.40;;
36593;SDS011;22603;47.900;8.146;2023-11-18T14:08:32;5.37;;;1.70;;
36593;SDS011;22603;47.900;8.146;2023-11-18T14:11:20;4.23;;;1.20;;
36593;SDS011;22603;47.900;8.146;2023-11-18T14:14:07;4.27;;;1.53;;
36593;SDS011;22603;47.900;8.146;2023-11-18T14:16:57;2.97;;;1.60;;
36593;SDS011;22603;47.900;8.146;2023-11-18T14:19:44;7.53;;;1.87;;
36593;SDS011;22603;47.900;8.146;2023-11-18T14:22:31;4.07;;;1.53;;
36593;SDS011;22603;47.900;8.146;2023-11-18T14:25:18;3.30;;;1.43;;
36593;SDS011;22603;47.900;8.146;2023-11-18T14:28:08;14.03;;;7.10;;
36593;SDS011;22603;47.900;8.146;2023-11-18T14:30:57;9.47;;;2.47;;
36593;SDS011;22603;47.900;8.146;2023-11-18T14:33:46;5.67;;;1.70;;
36593;SDS011;22603;47.900;8.146;2023-11-18T14:36:33;5.30;;;1.90;;
36593;SDS011;22603;47.900;8.146;2023-11-18T14:39:20;54.97;;;15.03;;
36593;SDS011;22603;47.900;8.146;2023-11-18T14:42:08;30.60;;;8.80;;
36593;SDS011;22603;47.900;8.146;2023-11-18T14:44:55;9.37;;;3.20;;
36593;SDS011;22603;47.900;8.146;2023-11-18T14:47:42;7.03;;;2.77;;
36593;SDS011;22603;47.900;8.146;2023-11-18T14:50:31;4.70;;;1.67;;
36593;SDS011;22603;47.900;8.146;2023-11-18T14:53:19;3.20;;;1.60;;
36593;SDS011;22603;47.900;8.146;2023-11-18T14:56:07;4.27;;;1.60;;
36593;SDS011;22603;47.900;8.146;2023-11-18T14:58:54;1.93;;;1.07;;
36593;SDS011;22603;47.900;8.146;2023-11-18T15:01:41;2.63;;;1.37;;
36593;SDS011;22603;47.900;8.146;2023-11-18T15:04:29;4.17;;;1.50;;
36593;SDS011;22603;47.900;8.146;2023-11-18T15:07:18;4.27;;;1.63;;
36593;SDS011;22603;47.900;8.146;2023-11-18T15:10:05;5.80;;;2.50;;
36593;SDS011;22603;47.900;8.146;2023-11-18T15:12:52;4.93;;;1.77;;
36593;SDS011;22603;47.900;8.146;2023-11-18T15:15:44;5.43;;;1.70;;
36593;SDS011;22603;47.900;8.146;2023-11-18T15:18:32;11.63;;;1.37;;
36593;SDS011;22603;47.900;8.146;2023-11-18T15:21:20;2.07;;;0.90;;
36593;SDS011;22603;47.900;8.146;2023-11-18T15:24:10;7.67;;;1.00;;
36593;SDS011;22603;47.900;8.146;2023-11-18T15:26:59;2.13;;;0.93;;
36593;SDS011;22603;47.900;8.146;2023-11-18T15:29:48;7.20;;;1.50;;
36593;SDS011;22603;47.900;8.146;2023-11-18T15:32:35;1.83;;;0.87;;
36593;SDS011;22603;47.900;8.146;2023-11-18T15:35:24;3.90;;;1.03;;
36593;SDS011;22603;47.900;8.146;2023-11-18T15:38:13;1.60;;;0.93;;
36593;SDS011;22603;47.900;8.146;2023-11-18T15:41:05;2.27;;;0.90;;
36593;SDS011;22603;47.900;8.146;2023-11-18T15:43:55;4.13;;;1.40;;
36593;SDS011;22603;47.900;8.146;2023-11-18T15:46:46;3.60;;;1.40;;
36593;SDS011;22603;47.900;8.146;2023-11-18T15:49:34;4.87;;;1.50;;
36593;SDS011;22603;47.900;8.146;2023-11-18T15:52:22;5.97;;;1.77;;
36593;SDS011;22603;47.900;8.146;2023-11-18T15:55:08;1.90;;;1.13;;
36593;SDS011;22603;47.900;8.146;2023-11-18T15:58:00;3.40;;;1.50;;
36593;SDS011;22603;47.900;8.146;2023-11-18T16:00:48;4.73;;;1.27;;
36593;SDS011;22603;47.900;8.146;2023-11-18T16:03:37;3.63;;;1.30;;
36593;SDS011;22603;47.900;8.146;2023-11-18T16:06:24;5.40;;;1.70;;
36593;SDS011;22603;47.900;8.146;2023-11-18T16:09:11;4.87;;;1.80;;
36593;SDS011;22603;47.900;8.146;2023-11-18T16:11:58;4.47;;;1.50;;
36593;SDS011;22603;47.900;8.146;2023-11-18T16:14:46;5.83;;;1.67;;
36593;SDS011;22603;47.900;8.146;2023-11-18T16:17:33;2.47;;;1.10;;
36593;SDS011;22603;47.900;8.146;2023-11-18T16:20:29;4.47;;;1.60;;
36593;SDS011;22603;47.900;8.146;2023-11-18T16:23:18;1.87;;;1.10;;
36593;SDS011;22603;47.900;8.146;2023-11-18T16:26:07;3.97;;;1.40;;
36593;SDS011;22603;47.900;8.146;2023-11-18T16:28:55;9.63;;;1.80;;
36593;SDS011;22603;47.900;8.146;2023-11-18T16:31:43;2.73;;;1.20;;
36593;SDS011;22603;47.900;8.146;2023-11-18T16:38:15;3.47;;;1.37;;
36593;SDS011;22603;47.900;8.146;2023-11-18T16:41:03;2.63;;;1.17;;
36593;SDS011;22603;47.900;8.146;2023-11-18T16:43:50;3.43;;;1.40;;
36593;SDS011;22603;47.900;8.146;2023-11-18T16:46:38;3.27;;;1.17;;
36593;SDS011;22603;47.900;8.146;2023-11-18T16:49:29;5.90;;;1.73;;
36593;SDS011;22603;47.900;8.146;2023-11-18T16:52:17;4.73;;;1.90;;
36593;SDS011;22603;47.900;8.146;2023-11-18T16:55:06;4.63;;;1.30;;
36593;SDS011;22603;47.900;8.146;2023-11-18T16:57:54;1.77;;;0.87;;
36593;SDS011;22603;47.900;8.146;2023-11-18T17:00:40;2.67;;;1.20;;
36593;SDS011;22603;47.900;8.146;2023-11-18T17:03:29;3.53;;;1.30;;
36593;SDS011;22603;47.900;8.146;2023-11-18T17:06:18;3.97;;;1.20;;
36593;SDS011;22603;47.900;8.146;2023-11-18T17:09:09;2.27;;;0.87;;
36593;SDS011;22603;47.900;8.146;2023-11-18T17:11:58;7.17;;;1.50;;
36593;SDS011;22603;47.900;8.146;2023-11-18T17:14:44;4.27;;;0.90;;
36593;SDS011;22603;47.900;8.146;2023-11-18T17:17:33;2.23;;;0.73;;
36593;SDS011;22603;47.900;8.146;2023-11-18T17:20:20;2.17;;;0.67;;
36593;SDS011;22603;47.900;8.146;2023-11-18T17:23:09;3.27;;;0.77;;
36593;SDS011;22603;47.900;8.146;2023-11-18T17:25:56;1.93;;;0.63;;
36593;SDS011;22603;47.900;8.146;2023-11-18T17:28:43;1.47;;;0.63;;
36593;SDS011;22603;47.900;8.146;2023-11-18T17:31:31;0.83;;;0.60;;
36593;SDS011;22603;47.900;8.146;2023-11-18T17:34:17;0.93;;;0.60;;
36593;SDS011;22603;47.900;8.146;2023-11-18T17:37:18;0.83;;;0.40;;
36593;SDS011;22603;47.900;8.146;2023-11-18T17:40:06;1.60;;;0.50;;
36593;SDS011;22603;47.900;8.146;2023-11-18T17:42:56;0.50;;;0.50;;
36593;SDS011;22603;47.900;8.146;2023-11-18T17:45:43;2.10;;;0.83;;
36593;SDS011;22603;47.900;8.146;2023-11-18T17:48:31;0.43;;;0.43;;
36593;SDS011;22603;47.900;8.146;2023-11-18T17:51:18;1.17;;;0.60;;
36593;SDS011;22603;47.900;8.146;2023-11-18T17:54:08;0.90;;;0.67;;
36593;SDS011;22603;47.900;8.146;2023-11-18T17:56:56;3.60;;;0.80;;
36593;SDS011;22603;47.900;8.146;2023-11-18T17:59:44;3.40;;;0.60;;
36593;SDS011;22603;47.900;8.146;2023-11-18T18:02:32;3.47;;;1.00;;
36593;SDS011;22603;47.900;8.146;2023-11-18T18:05:19;0.93;;;0.60;;
36593;SDS011;22603;47.900;8.146;2023-11-18T18:08:06;3.40;;;1.00;;
36593;SDS011;22603;47.900;8.146;2023-11-18T18:10:53;3.80;;;1.03;;
36593;SDS011;22603;47.900;8.146;2023-11-18T18:13:42;4.93;;;1.10;;
36593;SDS011;22603;47.900;8.146;2023-11-18T18:16:28;1.60;;;0.70;;
36593;SDS011;22603;47.900;8.146;2023-11-18T18:19:15;0.60;;;0.60;;
36593;SDS011;22603;47.900;8.146;2023-11-18T18:22:03;0.90;;;0.50;;
36593;SDS011;22603;47.900;8.146;2023-11-18T18:24:50;1.60;;;0.50;;
36593;SDS011;22603;47.900;8.146;2023-11-18T18:27:37;1.63;;;0.60;;
36593;SDS011;22603;47.900;8.146;2023-11-18T18:30:25;2.43;;;0.63;;
36593;SDS011;22603;47.900;8.146;2023-11-18T18:33:12;1.47;;;0.60;;
36593;SDS011;22603;47.900;8.146;2023-11-18T18:35:59;0.30;;;0.30;;
36593;SDS011;22603;47.900;8.146;2023-11-18T18:38:46;0.47;;;0.43;;
36593;SDS011;22603;47.900;8.146;2023-11-18T18:41:34;0.77;;;0.60;;
36593;SDS011;22603;47.900;8.146;2023-11-18T18:44:23;1.90;;;0.70;;
36593;SDS011;22603;47.900;8.146;2023-11-18T18:47:12;0.70;;;0.50;;
36593;SDS011;22603;47.900;8.146;2023-11-18T18:50:00;0.50;;;0.50;;
36593;SDS011;22603;47.900;8.146;2023-11-18T18:52:46;1.03;;;0.57;;
36593;SDS011;22603;47.900;8.146;2023-11-18T18:55:33;1.73;;;0.60;;
36593;SDS011;22603;47.900;8.146;2023-11-18T18:58:22;0.50;;;0.50;;
36593;SDS011;22603;47.900;8.146;2023-11-18T19:01:08;2.60;;;0.97;;
36593;SDS011;22603;47.900;8.146;2023-11-18T19:03:57;3.00;;;1.07;;
36593;SDS011;22603;47.900;8.146;2023-11-18T19:06:44;1.27;;;0.80;;
36593;SDS011;22603;47.900;8.146;2023-11-18T19:09:31;0.87;;;0.53;;
36593;SDS011;22603;47.900;8.146;2023-11-18T19:12:18;0.50;;;0.50;;
36593;SDS011;22603;47.900;8.146;2023-11-18T19:15:05;1.23;;;0.50;;
36593;SDS011;22603;47.900;8.146;2023-11-18T19:17:55;0.63;;;0.50;;
36593;SDS011;22603;47.900;8.146;2023-11-18T19:20:45;1.30;;;0.60;;
36593;SDS011;22603;47.900;8.146;2023-11-18T19:23:32;0.63;;;0.40;;
36593;SDS011;22603;47.900;8.146;2023-11-18T19:26:19;1.97;;;0.60;;
36593;SDS011;22603;47.900;8.146;2023-11-18T19:29:06;0.57;;;0.57;;
36593;SDS011;22603;47.900;8.146;2023-11-18T19:31:53;2.20;;;0.73;;
36593;SDS011;22603;47.900;8.146;2023-11-18T19:34:39;0.37;;;0.37;;
36593;SDS011;22603;47.900;8.146;2023-11-18T19:37:27;0.43;;;0.43;;
36593;SDS011;22603;47.900;8.146;2023-11-18T19:40:14;0.97;;;0.60;;
36593;SDS011;22603;47.900;8.146;2023-11-18T19:43:01;1.00;;;0.50;;
36593;SDS011;22603;47.900;8.146;2023-11-18T19:45:48;0.93;;;0.60;;
36593;SDS011;22603;47.900;8.146;2023-11-18T19:48:35;1.83;;;0.50;;
36593;SDS011;22603;47.900;8.146;2023-11-18T19:51:23;0.53;;;0.40;;
36593;SDS011;22603;47.900;8.146;2023-11-18T19:54:11;1.30;;;0.70;;
36593;SDS011;22603;47.900;8.146;2023-11-18T19:56:58;0.70;;;0.50;;
36593;SDS011;22603;47.900;8.146;2023-11-18T19:59:44;0.50;;;0.50;;
36593;SDS011;22603;47.900;8.146;2023-11-18T20:02:34;0.33;;;0.33;;
36593;SDS011;22603;47.900;8.146;2023-11-18T20:05:21;0.50;;;0.50;;
36593;SDS011;22603;47.900;8.146;2023-11-18T20:08:08;0.83;;;0.50;;
36593;SDS011;22603;47.900;8.146;2023-11-18T20:10:57;0.67;;;0.60;;
36593;SDS011;22603;47.900;8.146;2023-11-18T20:13:44;0.50;;;0.50;;
36593;SDS011;22603;47.900;8.146;2023-11-18T20:16:30;0.37;;;0.37;;
36593;SDS011;22603;47.900;8.146;2023-11-18T20:19:17;0.40;;;0.40;;
36593;SDS011;22603;47.900;8.146;2023-11-18T20:22:05;0.30;;;0.30;;
36593;SDS011;22603;47.900;8.146;2023-11-18T20:24:54;1.10;;;0.60;;
36593;SDS011;22603;47.900;8.146;2023-11-18T20:27:42;0.43;;;0.43;;
36593;SDS011;22603;47.900;8.146;2023-11-18T20:30:29;0.73;;;0.50;;
36593;SDS011;22603;47.900;8.146;2023-11-18T20:33:15;0.33;;;0.33;;
36593;SDS011;22603;47.900;8.146;2023-11-18T20:36:02;0.47;;;0.40;;
36593;SDS011;22603;47.900;8.146;2023-11-18T20:38:49;0.30;;;0.30;;
36593;SDS011;22603;47.900;8.146;2023-11-18T20:41:36;0.20;;;0.20;;
36593;SDS011;22603;47.900;8.146;2023-11-18T20:44:24;0.40;;;0.40;;
36593;SDS011;22603;47.900;8.146;2023-11-18T20:47:10;0.30;;;0.30;;
36593;SDS011;22603;47.900;8.146;2023-11-18T20:49:57;0.20;;;0.20;;
36593;SDS011;22603;47.900;8.146;2023-11-18T20:52:44;0.83;;;0.37;;
36593;SDS011;22603;47.900;8.146;2023-11-18T20:55:31;0.20;;;0.20;;
36593;SDS011;22603;47.900;8.146;2023-11-18T20:58:18;0.60;;;0.40;;
36593;SDS011;22603;47.900;8.146;2023-11-18T21:01:06;0.30;;;0.30;;
36593;SDS011;22603;47.900;8.146;2023-11-18T21:03:56;0.20;;;0.20;;
36593;SDS011;22603;47.900;8.146;2023-11-18T21:06:43;1.17;;;0.50;;
36593;SDS011;22603;47.900;8.146;2023-11-18T21:09:29;0.30;;;0.30;;
36593;SDS011;22603;47.900;8.146;2023-11-18T21:12:16;0.23;;;0.23;;
36593;SDS011;22603;47.900;8.146;2023-11-18T21:15:05;0.30;;;0.30;;
36593;SDS011;22603;47.900;8.146;2023-11-18T21:17:54;0.23;;;0.23;;
36593;SDS011;22603;47.900;8.146;2023-11-18T21:20:42;0.40;;;0.37;;
36593;SDS011;22603;47.900;8.146;2023-11-18T21:23:29;0.20;;;0.20;;
36593;SDS011;22603;47.900;8.146;2023-11-18T21:26:17;0.23;;;0.23;;
36593;SDS011;22603;47.900;8.146;2023-11-18T21:29:05;0.97;;;0.53;;
36593;SDS011;22603;47.900;8.146;2023-11-18T21:31:51;0.30;;;0.30;;
36593;SDS011;22603;47.900;8.146;2023-11-18T21:34:39;0.37;;;0.23;;
36593;SDS011;22603;47.900;8.146;2023-11-18T21:37:28;0.20;;;0.20;;
36593;SDS011;22603;47.900;8.146;2023-11-18T21:40:16;1.10;;;0.43;;
36593;SDS011;22603;47.900;8.146;2023-11-18T21:43:04;0.97;;;0.30;;
36593;SDS011;22603;47.900;8.146;2023-11-18T21:45:51;0.20;;;0.20;;
36593;SDS011;22603;47.900;8.146;2023-11-18T21:48:38;0.20;;;0.20;;
36593;SDS011;22603;47.900;8.146;2023-11-18T21:51:27;0.47;;;0.30;;
36593;SDS011;22603;47.900;8.146;2023-11-18T21:54:14;0.73;;;0.30;;
36593;SDS011;22603;47.900;8.146;2023-11-18T21:57:01;0.90;;;0.43;;
36593;SDS011;22603;47.900;8.146;2023-11-18T21:59:48;0.40;;;0.40;;
36593;SDS011;22603;47.900;8.146;2023-11-18T22:02:35;0.27;;;0.27;;
36593;SDS011;22603;47.900;8.146;2023-11-18T22:05:23;0.20;;;0.20;;
36593;SDS011;22603;47.900;8.146;2023-11-18T22:08:12;0.40;;;0.40;;
36593;SDS011;22603;47.900;8.146;2023-11-18T22:11:04;0.30;;;0.30;;
36593;SDS011;22603;47.900;8.146;2023-11-18T22:13:51;1.23;;;0.40;;
36593;SDS011;22603;47.900;8.146;2023-11-18T22:16:37;0.30;;;0.30;;
36593;SDS011;22603;47.900;8.146;2023-11-18T22:19:24;0.20;;;0.20;;
36593;SDS011;22603;47.900;8.146;2023-11-18T22:22:12;1.30;;;0.30;;
36593;SDS011;22603;47.900;8.146;2023-11-18T22:25:00;0.30;;;0.30;;
36593;SDS011;22603;47.900;8.146;2023-11-18T22:27:47;1.63;;;0.40;;
36593;SDS011;22603;47.900;8.146;2023-11-18T22:30:34;0.20;;;0.20;;
36593;SDS011;22603;47.900;8.146;2023-11-18T22:33:20;0.40;;;0.30;;
36593;SDS011;22603;47.900;8.146;2023-11-18T22:36:10;0.50;;;0.33;;
36593;SDS011;22603;47.900;8.146;2023-11-18T22:38:56;1.23;;;0.30;;
36593;SDS011;22603;47.900;8.146;2023-11-18T22:41:44;0.73;;;0.20;;
36593;SDS011;22603;47.900;8.146;2023-11-18T22:44:31;0.30;;;0.30;;
36593;SDS011;22603;47.900;8.146;2023-11-18T22:47:21;0.40;;;0.40;;
36593;SDS011;22603;47.900;8.146;2023-11-18T22:50:08;0.83;;;0.40;;
36593;SDS011;22603;47.900;8.146;2023-11-18T22:52:57;0.43;;;0.33;;
36593;SDS011;22603;47.900;8.146;2023-11-18T22:55:45;0.23;;;0.23;;
36593;SDS011;22603;47.900;8.146;2023-11-18T22:58:34;0.30;;;0.30;;
36593;SDS011;22603;47.900;8.146;2023-11-18T23:01:24;0.30;;;0.30;;
36593;SDS011;22603;47.900;8.146;2023-11-18T23:04:11;0.30;;;0.30;;
36593;SDS011;22603;47.900;8.146;2023-11-18T23:06:58;1.20;;;0.63;;
36593;SDS011;22603;47.900;8.146;2023-11-18T23:09:47;0.20;;;0.20;;
36593;SDS011;22603;47.900;8.146;2023-11-18T23:12:33;0.30;;;0.30;;
36593;SDS011;22603;47.900;8.146;2023-11-18T23:15:21;0.30;;;0.30;;
36593;SDS011;22603;47.900;8.146;2023-11-18T23:18:10;0.60;;;0.37;;
36593;SDS011;22603;47.900;8.146;2023-11-18T23:20:57;1.70;;;0.40;;
36593;SDS011;22603;47.900;8.146;2023-11-18T23:23:43;0.50;;;0.50;;
36593;SDS011;22603;47.900;8.146;2023-11-18T23:26:32;0.70;;;0.30;;
36593;SDS011;22603;47.900;8.146;2023-11-18T23:29:18;0.40;;;0.40;;
36593;SDS011;22603;47.900;8.146;2023-11-18T23:32:07;0.40;;;0.40;;
36593;SDS011;22603;47.900;8.146;2023-11-18T23:34:54;0.30;;;0.30;;
36593;SDS011;22603;47.900;8.146;2023-11-18T23:37:42;0.30;;;0.30;;
36593;SDS011;22603;47.900;8.146;2023-11-18T23:40:30;0.47;;;0.40;;
36593;SDS011;22603;47.900;8.146;2023-11-18T23:43:18;0.50;;;0.50;;
36593;SDS011;22603;47.900;8.146;2023-11-18T23:46:05;0.20;;;0.20;;
36593;SDS011;22603;47.900;8.146;2023-11-18T23:48:54;0.30;;;0.30;;
36593;SDS011;22603;47.900;8.146;2023-11-18T23:51:41;0.63;;;0.30;;
36593;SDS011;22603;47.900;8.146;2023-11-18T23:54:27;0.43;;;0.37;;
36593;SDS011;22603;47.900;8.146;2023-11-18T23:57:15;0.40;;;0.40;;
